Time;durP1;ratioP1;P1;durP2;ratioP2;P2;SDS_P1;SDS_P2;PMS_P1;PMS_P2;Temp;Humidity;BMP_temperature;BMP_pressure;BME280_temperature;BME280_humidity;BME280_pressure;Samples;Min_cycle;Max_cycle;Signal;HPM_P1;HPM_P2
2022/10/23 00:00:58;;;;;;;14.75;7.30;;;;;;;5.46;74.43;99583.66;6230281;22;20027;-76
2022/10/23 00:03:23;;;;;;;13.82;6.93;;;;;;;5.35;75.08;99575.41;6231613;22;20019;-75
2022/10/23 00:05:47;;;;;;;13.57;7.43;;;;;;;5.33;75.10;99582.56;6233191;22;20019;-73
2022/10/23 00:08:12;;;;;;;9.95;6.10;;;;;;;5.44;74.86;99580.22;6231742;22;20016;-74
2022/10/23 00:10:40;;;;;;;12.40;7.28;;;;;;;5.39;74.62;99576.97;6180955;22;20015;-76
2022/10/23 00:13:04;;;;;;;13.07;7.07;;;;;;;5.37;75.04;99572.69;6231221;22;20422;-74
2022/10/23 00:15:29;;;;;;;10.40;6.63;;;;;;;5.42;75.29;99571.50;6232789;22;20339;-75
2022/10/23 00:17:54;;;;;;;11.30;6.70;;;;;;;5.47;74.94;99568.66;6232898;22;20020;-74
2022/10/23 00:20:18;;;;;;;13.63;6.78;;;;;;;5.44;74.62;99560.88;6205536;22;20394;-76
2022/10/23 00:22:43;;;;;;;10.10;6.78;;;;;;;5.48;74.33;99565.06;6204377;22;20015;-74
2022/10/23 00:25:09;;;;;;;8.95;6.20;;;;;;;5.48;74.13;99549.22;6203367;22;20019;-72
2022/10/23 00:27:34;;;;;;;12.85;7.25;;;;;;;5.41;74.95;99548.69;6232574;22;20022;-73
2022/10/23 00:29:59;;;;;;;13.02;7.88;;;;;;;5.34;74.75;99546.41;6229800;22;20161;-75
2022/10/23 00:32:25;;;;;;;16.02;9.18;;;;;;;5.24;75.04;99540.75;6203821;22;20613;-74
2022/10/23 00:34:50;;;;;;;15.98;8.88;;;;;;;5.19;74.84;99550.72;6230882;22;20339;-77
2022/10/23 00:37:15;;;;;;;14.77;8.60;;;;;;;5.22;74.75;99539.97;6231156;22;20468;-76
2022/10/23 00:39:39;;;;;;;12.32;7.05;;;;;;;5.22;74.42;99541.75;6230527;22;20439;-70
2022/10/23 00:42:04;;;;;;;11.23;7.50;;;;;;;5.14;75.43;99536.88;6205323;22;20102;-76
2022/10/23 00:44:29;;;;;;;15.75;7.45;;;;;;;5.22;75.17;99533.84;6231114;22;20019;-78
2022/10/23 00:46:53;;;;;;;15.13;8.27;;;;;;;5.26;74.72;99528.31;6230723;22;20046;-70
2022/10/23 00:49:19;;;;;;;12.60;7.85;;;;;;;5.24;74.43;99530.19;6230780;22;20710;-80
2022/10/23 00:51:51;;;;;;;10.02;6.72;;;;;;;5.30;74.63;99524.59;6230715;22;20022;-71
2022/10/23 00:54:20;;;;;;;15.57;8.90;;;;;;;5.27;74.31;99519.47;6229296;22;20019;-78
2022/10/23 00:56:45;;;;;;;13.35;7.55;;;;;;;5.24;74.28;99514.31;6203515;22;20076;-79
2022/10/23 00:59:10;;;;;;;15.15;7.57;;;;;;;5.15;74.54;99509.53;6232208;22;20015;-77
2022/10/23 01:01:34;;;;;;;11.30;7.45;;;;;;;5.22;74.53;99502.97;6203664;22;20069;-75
2022/10/23 01:04:02;;;;;;;11.60;7.32;;;;;;;5.27;74.38;99508.03;6230466;22;20020;-77
2022/10/23 01:06:32;;;;;;;11.18;7.55;;;;;;;5.22;74.20;99500.31;6231318;22;20022;-76
2022/10/23 01:09:08;;;;;;;11.45;6.85;;;;;;;5.34;74.12;99507.63;6205630;22;20041;-78
2022/10/23 01:11:54;;;;;;;12.27;7.78;;;;;;;5.37;73.72;99496.03;6203822;22;20046;-78
2022/10/23 01:14:37;;;;;;;11.23;6.78;;;;;;;5.47;73.50;99490.19;6230878;22;20301;-78
2022/10/23 01:17:18;;;;;;;16.20;8.60;;;;;;;5.30;73.26;99490.25;6230055;22;20173;-73
2022/10/23 01:20:05;;;;;;;10.43;6.93;;;;;;;5.25;73.40;99489.59;6231253;22;20280;-77
2022/10/23 01:22:45;;;;;;;11.43;7.97;;;;;;;5.09;73.94;99478.97;6232498;22;20015;-76
2022/10/23 01:26:03;;;;;;;13.02;7.72;;;;;;;5.20;73.93;99488.13;6240812;22;20427;-72
2022/10/23 01:28:30;;;;;;;12.57;6.45;;;;;;;5.11;73.45;99477.09;6089005;23;20448;-76
2022/10/23 01:30:58;;;;;;;21.75;9.00;;;;;;;5.11;73.09;99476.25;6065129;23;20016;-77
2022/10/23 01:33:34;;;;;;;10.97;7.60;;;;;;;5.05;72.99;99476.59;6113622;23;20047;-74
2022/10/23 01:36:13;;;;;;;12.18;7.20;;;;;;;4.93;73.80;99479.84;6139256;23;20013;-78
2022/10/23 01:39:12;;;;;;;16.88;7.72;;;;;;;4.91;73.44;99465.88;6090118;23;20045;-77
2022/10/23 01:41:46;;;;;;;13.48;7.88;;;;;;;4.79;73.97;99464.69;6028713;23;20085;-73
2022/10/23 01:44:25;;;;;;;13.45;8.15;;;;;;;4.73;73.66;99472.94;6027516;23;20022;-72
2022/10/23 01:46:52;;;;;;;11.82;7.50;;;;;;;4.64;73.79;99470.75;6037754;23;20078;-77
2022/10/23 01:49:19;;;;;;;13.43;7.40;;;;;;;4.51;74.26;99475.81;6052589;23;20018;-75
2022/10/23 01:51:55;;;;;;;14.30;8.55;;;;;;;4.45;74.46;99468.16;6027852;23;20109;-71
2022/10/23 01:54:24;;;;;;;12.10;7.43;;;;;;;4.46;74.74;99472.53;6001133;23;20021;-76
2022/10/23 01:56:51;;;;;;;13.27;7.10;;;;;;;4.51;74.54;99465.25;6047970;23;20022;-76
2022/10/23 01:59:29;;;;;;;12.50;8.23;;;;;;;4.52;74.17;99464.28;6076778;23;20020;-70
2022/10/23 02:01:57;;;;;;;17.58;8.77;;;;;;;4.48;74.24;99470.66;6140913;23;20175;-72
2022/10/23 02:04:32;;;;;;;12.15;8.27;;;;;;;4.50;74.15;99473.22;6165196;23;20020;-72
2022/10/23 02:06:57;;;;;;;12.60;7.57;;;;;;;4.38;75.00;99461.50;6140080;23;20399;-72
2022/10/23 02:09:22;;;;;;;15.65;7.63;;;;;;;4.48;74.05;99481.22;6140082;23;20396;-72
2022/10/23 02:11:57;;;;;;;13.48;8.07;;;;;;;4.41;74.42;99453.41;6164928;23;20112;-73
2022/10/23 02:14:36;;;;;;;16.25;8.15;;;;;;;4.37;74.58;99457.16;6150927;23;20016;-74
2022/10/23 02:17:14;;;;;;;8.75;5.57;;;;;;;4.45;74.64;99462.03;6140743;23;20017;-72
2022/10/23 02:19:50;;;;;;;14.13;8.45;;;;;;;4.46;73.72;99455.81;6227684;22;20072;-72
2022/10/23 02:22:18;;;;;;;14.70;7.80;;;;;;;4.33;74.35;99464.34;6226688;22;20129;-70
2022/10/23 02:24:50;;;;;;;15.77;7.90;;;;;;;4.27;74.39;99456.75;6227157;22;20039;-72
2022/10/23 02:27:41;;;;;;;15.40;7.07;;;;;;;4.29;74.23;99454.00;6227082;22;20518;-71
2022/10/23 02:30:13;;;;;;;10.60;7.07;;;;;;;4.30;74.21;99450.44;6201708;22;20015;-72
2022/10/23 02:32:44;;;;;;;13.13;6.95;;;;;;;4.29;73.97;99454.00;6200767;22;20027;-72
2022/10/23 02:35:11;;;;;;;12.48;7.82;;;;;;;4.18;74.25;99443.97;6226102;22;20141;-74
2022/10/23 02:37:36;;;;;;;13.52;8.80;;;;;;;4.24;74.28;99450.75;6227855;22;20051;-72
2022/10/23 02:40:03;;;;;;;16.65;8.23;;;;;;;4.19;74.00;99447.47;6226834;22;20015;-72
2022/10/23 02:43:01;;;;;;;13.77;7.30;;;;;;;4.19;74.33;99436.91;6202404;22;20023;-71
2022/10/23 02:45:35;;;;;;;13.70;7.97;;;;;;;4.12;74.67;99440.78;6201467;22;20347;-71
2022/10/23 02:48:10;;;;;;;15.93;8.68;;;;;;;4.24;74.06;99453.38;6228812;22;20015;-70
2022/10/23 02:50:41;;;;;;;25.30;8.60;;;;;;;4.17;73.93;99431.75;6226972;22;20026;-70
2022/10/23 02:53:32;;;;;;;11.98;8.15;;;;;;;4.04;74.59;99437.69;6227021;22;20415;-71
2022/10/23 02:56:11;;;;;;;10.52;6.88;;;;;;;4.10;74.73;99443.50;6230520;22;20099;-69
2022/10/23 02:59:03;;;;;;;12.98;7.45;;;;;;;4.11;74.54;99429.38;6229400;22;20069;-69
2022/10/23 03:01:37;;;;;;;16.15;8.68;;;;;;;4.03;74.62;99441.25;6202675;22;20018;-68
2022/10/23 03:04:04;;;;;;;15.00;8.25;;;;;;;3.90;75.02;99439.19;6228589;22;20051;-68
2022/10/23 03:06:29;;;;;;;14.32;8.85;;;;;;;3.98;74.80;99429.13;6228653;22;20019;-69
2022/10/23 03:09:04;;;;;;;13.68;8.13;;;;;;;3.84;75.74;99439.47;6229180;22;20022;-69
2022/10/23 03:11:29;;;;;;;19.30;10.52;;;;;;;3.67;76.72;99433.28;6228390;22;20020;-69
2022/10/23 03:13:53;;;;;;;14.20;8.85;;;;;;;3.76;76.55;99423.16;6203780;22;20018;-68
2022/10/23 03:16:18;;;;;;;14.82;9.13;;;;;;;3.79;75.89;99416.91;6228497;22;20047;-71
2022/10/23 03:18:49;;;;;;;14.23;9.02;;;;;;;3.83;75.73;99419.31;6228879;22;20343;-71
2022/10/23 03:21:13;;;;;;;13.57;10.02;;;;;;;3.77;75.87;99424.00;6228872;22;20351;-70
2022/10/23 03:23:38;;;;;;;17.60;10.50;;;;;;;3.76;75.49;99411.75;6228366;22;20026;-69
2022/10/23 03:26:03;;;;;;;16.20;10.23;;;;;;;3.62;76.48;99412.41;6230014;22;20015;-70
2022/10/23 03:28:38;;;;;;;15.65;8.95;;;;;;;3.63;76.51;99414.13;6180463;22;20019;-72
2022/10/23 03:31:03;;;;;;;19.25;10.00;;;;;;;3.61;76.21;99408.91;6230296;22;20015;-71
2022/10/23 03:33:30;;;;;;;14.82;9.20;;;;;;;3.77;75.92;99408.19;6229020;22;20047;-71
2022/10/23 03:36:02;;;;;;;13.23;8.38;;;;;;;3.82;75.69;99417.63;6202809;22;20019;-70
2022/10/23 03:38:27;;;;;;;20.00;11.20;;;;;;;3.78;75.51;99410.75;6229105;22;20018;-73
2022/10/23 03:40:52;;;;;;;15.25;8.85;;;;;;;3.69;75.83;99403.28;6229517;22;20025;-72
2022/10/23 03:43:16;;;;;;;15.32;10.10;;;;;;;3.74;75.87;99406.56;6229494;22;20011;-72
2022/10/23 03:45:41;;;;;;;16.67;10.02;;;;;;;3.71;75.53;99405.88;6229606;22;20447;-72
2022/10/23 03:48:06;;;;;;;21.70;11.60;;;;;;;3.59;76.12;99396.75;6229172;22;20300;-71
2022/10/23 03:50:34;;;;;;;19.58;10.70;;;;;;;3.49;76.63;99400.75;6231001;22;20102;-71
2022/10/23 03:52:59;;;;;;;16.63;9.68;;;;;;;3.55;76.45;99393.41;6229134;22;20011;-71
2022/10/23 03:55:25;;;;;;;17.27;10.02;;;;;;;3.49;76.88;99391.06;6229772;22;20339;-68
2022/10/23 03:57:50;;;;;;;19.83;10.32;;;;;;;3.52;76.45;99388.25;6229268;22;20347;-72
2022/10/23 04:00:18;;;;;;;13.07;8.38;;;;;;;3.48;76.76;99383.22;6229191;22;20030;-71
2022/10/23 04:02:44;;;;;;;15.57;10.27;;;;;;;3.48;76.57;99380.59;6229819;22;20749;-71
2022/10/23 04:05:09;;;;;;;22.88;10.90;;;;;;;3.49;76.41;99384.94;6229165;22;20490;-73
2022/10/23 04:07:36;;;;;;;16.50;10.27;;;;;;;3.49;76.58;99382.31;6228084;22;20026;-72
2022/10/23 04:10:01;;;;;;;15.48;9.27;;;;;;;3.50;76.61;99381.38;6228020;22;20396;-70
2022/10/23 04:12:27;;;;;;;16.40;9.02;;;;;;;3.44;76.81;99379.88;6228185;22;20020;-71
2022/10/23 04:14:51;;;;;;;13.10;7.35;;;;;;;3.44;76.76;99382.50;6229495;22;20018;-71
2022/10/23 04:17:16;;;;;;;18.50;9.82;;;;;;;3.40;76.63;99380.94;6202733;22;20022;-72
2022/10/23 04:19:41;;;;;;;14.13;8.82;;;;;;;3.35;77.58;99379.44;6230228;22;20875;-70
2022/10/23 04:22:06;;;;;;;16.02;8.63;;;;;;;3.51;76.71;99376.00;6227987;22;20537;-72
2022/10/23 04:24:31;;;;;;;14.60;9.02;;;;;;;3.50;76.83;99376.09;6202342;22;20165;-71
2022/10/23 04:26:56;;;;;;;15.80;8.85;;;;;;;3.54;76.62;99370.59;6227646;22;20049;-72
2022/10/23 04:29:24;;;;;;;15.90;9.07;;;;;;;3.60;76.72;99365.06;6227882;22;20355;-72
2022/10/23 04:31:50;;;;;;;18.83;11.45;;;;;;;3.56;76.93;99357.34;6228805;22;20303;-71
2022/10/23 04:34:15;;;;;;;16.63;9.43;;;;;;;3.54;77.01;99356.56;6227734;22;20764;-72
2022/10/23 04:36:39;;;;;;;16.05;8.80;;;;;;;3.52;77.10;99356.63;6228300;22;20351;-70
2022/10/23 04:39:09;;;;;;;16.63;9.68;;;;;;;3.51;77.18;99354.06;6201925;22;20023;-70
2022/10/23 04:41:34;;;;;;;14.57;9.95;;;;;;;3.47;77.50;99358.66;6202733;22;20052;-72
2022/10/23 04:43:59;;;;;;;17.42;9.60;;;;;;;3.54;77.65;99359.19;6227951;22;20022;-71
2022/10/23 04:46:23;;;;;;;14.25;8.40;;;;;;;3.55;77.26;99356.50;6227624;22;20043;-70
2022/10/23 04:48:48;;;;;;;16.55;9.57;;;;;;;3.63;77.17;99358.75;6202452;22;20023;-71
2022/10/23 04:51:43;;;;;;;19.10;10.80;;;;;;;3.69;77.27;99360.25;6228450;22;20019;-71
2022/10/23 04:54:22;;;;;;;19.83;10.10;;;;;;;3.75;77.00;99355.53;6227892;22;20057;-71
2022/10/23 04:57:10;;;;;;;16.38;8.65;;;;;;;3.79;77.47;99362.38;6165927;23;20020;-71
2022/10/23 04:59:51;;;;;;;18.85;9.85;;;;;;;3.90;77.03;99356.59;6140651;23;20016;-71
2022/10/23 05:02:16;;;;;;;15.30;9.10;;;;;;;3.97;77.45;99355.34;6116190;23;20027;-70
2022/10/23 05:04:41;;;;;;;13.70;9.20;;;;;;;4.11;76.76;99359.94;6140568;23;20330;-69
2022/10/23 05:07:23;;;;;;;20.70;11.73;;;;;;;4.15;76.25;99358.88;6140632;23;20016;-70
2022/10/23 05:10:00;;;;;;;17.67;9.60;;;;;;;4.18;76.08;99369.25;6165256;23;20066;-70
2022/10/23 05:12:46;;;;;;;16.67;9.68;;;;;;;4.11;76.47;99367.84;6141035;23;20035;-71
2022/10/23 05:15:10;;;;;;;20.08;11.80;;;;;;;4.10;76.81;99363.50;6141058;23;20487;-69
2022/10/23 05:17:39;;;;;;;12.02;8.18;;;;;;;4.18;76.46;99359.56;6140959;23;20025;-71
2022/10/23 05:20:08;;;;;;;18.20;10.57;;;;;;;4.20;76.36;99354.19;6165951;23;20031;-70
2022/10/23 05:22:35;;;;;;;16.58;9.05;;;;;;;4.29;75.93;99359.00;6140912;23;20016;-70
2022/10/23 05:25:04;;;;;;;15.32;9.43;;;;;;;4.31;75.69;99357.16;6140504;23;20021;-70
2022/10/23 05:27:30;;;;;;;16.33;9.05;;;;;;;4.39;75.67;99349.72;6115915;23;20412;-71
2022/10/23 05:29:55;;;;;;;14.75;9.93;;;;;;;4.35;75.52;99350.81;6141089;23;20198;-69
2022/10/23 05:32:26;;;;;;;16.48;9.27;;;;;;;4.41;75.74;99349.63;6141005;23;20055;-71
2022/10/23 05:34:51;;;;;;;16.95;9.93;;;;;;;4.48;75.45;99351.88;6209974;22;20022;-70
2022/10/23 05:37:16;;;;;;;20.42;11.25;;;;;;;4.67;74.78;99349.13;6179425;22;20020;-72
2022/10/23 05:39:41;;;;;;;16.73;10.77;;;;;;;4.60;74.99;99345.13;6232818;22;20015;-72
2022/10/23 05:42:11;;;;;;;16.48;10.05;;;;;;;4.81;73.89;99343.13;6237344;22;20020;-71
2022/10/23 05:44:36;;;;;;;17.98;10.07;;;;;;;4.72;74.74;99342.69;6233951;22;20351;-70
2022/10/23 05:47:10;;;;;;;16.95;11.32;;;;;;;4.77;74.48;99345.06;6237211;22;20020;-71
2022/10/23 05:49:53;;;;;;;16.98;10.23;;;;;;;4.83;74.25;99336.00;6231442;22;20016;-70
2022/10/23 05:52:37;;;;;;;16.80;11.18;;;;;;;4.82;74.42;99326.38;6166095;23;20020;-72
2022/10/23 05:55:20;;;;;;;17.58;9.38;;;;;;;4.94;74.12;99325.72;6166261;23;20020;-71
2022/10/23 05:58:04;;;;;;;20.33;10.15;;;;;;;5.02;73.97;99323.50;6166804;23;20464;-73
2022/10/23 06:00:58;;;;;;;17.80;10.30;;;;;;;5.07;73.76;99326.75;6048223;23;20085;-71
2022/10/23 06:04:01;;;;;;;17.15;9.60;;;;;;;5.10;73.65;99331.84;6029307;23;20018;-72
2022/10/23 06:06:45;;;;;;;15.50;9.25;;;;;;;5.21;73.03;99334.78;6048446;23;20335;-72
2022/10/23 06:09:11;;;;;;;15.48;9.45;;;;;;;5.13;73.49;99334.34;6049041;23;20030;-72
2022/10/23 06:11:37;;;;;;;15.68;8.82;;;;;;;5.12;73.16;99327.34;6049389;23;20470;-73
2022/10/23 06:14:08;;;;;;;17.83;10.38;;;;;;;5.17;73.24;99327.97;6048737;23;20018;-71
2022/10/23 06:16:33;;;;;;;16.40;9.13;;;;;;;5.12;74.08;99314.13;6024911;23;20062;-72
2022/10/23 06:18:59;;;;;;;14.48;8.30;;;;;;;5.32;72.76;99315.69;6053319;23;20050;-72
2022/10/23 06:21:24;;;;;;;16.63;10.02;;;;;;;5.37;72.25;99311.84;6033354;23;20014;-71
2022/10/23 06:23:50;;;;;;;19.00;10.35;;;;;;;5.24;72.55;99312.63;6058598;23;20014;-72
2022/10/23 06:26:21;;;;;;;16.95;9.10;;;;;;;5.26;72.60;99306.31;6057305;23;20489;-69
2022/10/23 06:29:24;;;;;;;16.17;10.05;;;;;;;5.33;73.58;99310.31;6021142;23;20069;-71
2022/10/23 06:31:49;;;;;;;14.55;8.88;;;;;;;5.52;73.12;99301.38;6056528;23;20022;-70
2022/10/23 06:34:14;;;;;;;24.25;11.82;;;;;;;5.59;72.83;99300.06;6008618;23;20097;-70
2022/10/23 06:36:39;;;;;;;19.77;11.23;;;;;;;5.66;72.43;99296.13;6075044;23;20017;-71
2022/10/23 06:39:39;;;;;;;19.17;10.23;;;;;;;5.89;72.43;99292.19;6085494;23;20612;-71
2022/10/23 06:42:24;;;;;;;18.17;9.70;;;;;;;6.01;71.60;99284.41;6029171;23;20455;-71
2022/10/23 06:44:51;;;;;;;14.10;8.55;;;;;;;6.14;71.85;99287.19;6028870;23;20098;-71
2022/10/23 06:47:33;;;;;;;18.63;10.73;;;;;;;6.11;71.29;99276.78;6022218;23;20023;-71
2022/10/23 06:50:16;;;;;;;23.13;11.70;;;;;;;6.02;70.84;99269.38;6025692;23;20027;-69
2022/10/23 06:52:43;;;;;;;13.55;8.30;;;;;;;6.13;71.20;99266.97;6024875;23;20025;-70
2022/10/23 06:55:08;;;;;;;16.33;9.90;;;;;;;6.12;70.80;99266.09;6023492;23;20038;-71
2022/10/23 06:57:36;;;;;;;17.77;10.25;;;;;;;6.14;71.35;99272.16;5997585;23;20050;-70
2022/10/23 07:00:03;;;;;;;21.38;10.60;;;;;;;6.11;71.08;99264.41;6035043;23;20465;-72
2022/10/23 07:02:28;;;;;;;19.25;10.40;;;;;;;6.10;71.47;99262.69;6050371;23;20469;-70
2022/10/23 07:04:55;;;;;;;21.55;11.40;;;;;;;6.18;71.27;99263.09;6050384;23;20027;-71
2022/10/23 07:07:20;;;;;;;18.75;11.82;;;;;;;6.29;70.59;99261.63;6025674;23;20219;-74
2022/10/23 07:09:47;;;;;;;17.05;10.63;;;;;;;6.42;70.59;99257.28;6051872;23;20073;-74
2022/10/23 07:12:27;;;;;;;19.35;10.70;;;;;;;6.62;70.66;99246.31;6052329;23;20018;-74
2022/10/23 07:15:08;;;;;;;16.35;10.35;;;;;;;6.64;70.51;99249.72;6081440;23;20018;-75
2022/10/23 07:17:32;;;;;;;19.27;11.80;;;;;;;6.61;69.48;99252.56;6057121;23;20045;-73
2022/10/23 07:19:57;;;;;;;20.27;11.18;;;;;;;6.67;69.19;99244.22;6185249;22;20020;-73
2022/10/23 07:22:22;;;;;;;18.05;11.60;;;;;;;6.39;69.78;99246.88;6206782;22;20467;-74
2022/10/23 07:25:03;;;;;;;18.73;12.30;;;;;;;6.38;70.23;99243.38;6242508;22;20030;-71
2022/10/23 07:27:37;;;;;;;17.27;10.10;;;;;;;6.40;69.86;99238.00;6230110;22;20020;-72
2022/10/23 07:30:04;;;;;;;18.67;11.50;;;;;;;6.33;70.71;99237.50;6235036;22;20042;-73
2022/10/23 07:32:36;;;;;;;19.52;10.95;;;;;;;6.39;70.85;99247.72;6205539;22;20029;-71
2022/10/23 07:35:19;;;;;;;26.92;12.57;;;;;;;6.44;69.88;99236.84;6231380;22;20648;-71
2022/10/23 07:38:00;;;;;;;20.85;11.57;;;;;;;6.52;70.04;99240.75;6233832;22;20023;-71
2022/10/23 07:40:28;;;;;;;19.77;11.20;;;;;;;6.48;70.33;99235.72;6231520;22;20539;-71
2022/10/23 07:42:55;;;;;;;22.33;11.02;;;;;;;6.50;70.70;99228.53;6230528;22;20328;-72
2022/10/23 07:45:21;;;;;;;27.38;12.55;;;;;;;6.63;69.73;99232.13;6203953;22;20019;-72
2022/10/23 07:47:50;;;;;;;25.00;11.75;;;;;;;6.60;70.26;99236.75;6205501;22;20399;-73
2022/10/23 07:50:17;;;;;;;19.60;11.93;;;;;;;6.63;69.93;99228.63;6205450;22;20026;-73
2022/10/23 07:52:41;;;;;;;20.48;13.18;;;;;;;6.51;70.00;99231.09;6232312;22;20019;-74
2022/10/23 07:55:09;;;;;;;21.02;11.27;;;;;;;6.55;70.04;99222.00;6231207;22;20020;-74
2022/10/23 07:57:37;;;;;;;24.05;13.05;;;;;;;6.43;70.62;99232.50;6230841;22;20016;-73
2022/10/23 08:00:19;;;;;;;19.52;12.20;;;;;;;6.53;70.07;99236.31;6209139;22;20018;-74
2022/10/23 08:02:53;;;;;;;;;;;;;;;6.63;70.76;99234.78;6231006;22;20012;-73
2022/10/23 08:05:19;;;;;;;20.52;11.95;;;;;;;6.48;70.23;99233.06;6244261;22;20349;-74
2022/10/23 08:07:50;;;;;;;21.70;12.38;;;;;;;6.48;70.40;99238.38;6206075;22;20405;-71
2022/10/23 08:10:15;;;;;;;30.55;14.43;;;;;;;6.41;70.58;99237.03;6203921;22;20381;-72
2022/10/23 08:12:42;;;;;;;23.80;12.32;;;;;;;6.44;70.41;99237.69;6206561;22;20459;-71
2022/10/23 08:15:07;;;;;;;30.58;14.85;;;;;;;6.41;71.00;99227.31;6205685;22;20011;-70
2022/10/23 08:17:44;;;;;;;22.00;11.65;;;;;;;6.54;70.60;99230.91;6229867;22;20015;-71
2022/10/23 08:20:12;;;;;;;31.50;14.80;;;;;;;6.61;70.28;99223.44;6231012;22;20016;-72
2022/10/23 08:22:40;;;;;;;26.55;12.20;;;;;;;6.55;70.55;99229.09;6233116;22;20015;-73
2022/10/23 08:25:05;;;;;;;25.92;13.50;;;;;;;6.50;70.01;99228.53;6229460;22;20020;-73
2022/10/23 08:27:30;;;;;;;33.33;15.80;;;;;;;6.39;71.00;99225.69;6232173;22;20772;-73
2022/10/23 08:29:55;;;;;;;30.55;16.42;;;;;;;6.25;71.59;99223.03;6231623;22;20051;-74
2022/10/23 08:32:19;;;;;;;28.80;14.40;;;;;;;6.20;72.75;99220.66;6229031;22;20088;-74
2022/10/23 08:34:58;;;;;;;28.17;13.98;;;;;;;6.26;72.25;99216.78;6228669;22;20011;-73
2022/10/23 08:37:27;;;;;;;27.02;15.13;;;;;;;6.31;72.34;99225.31;6229099;22;20477;-73
2022/10/23 08:39:51;;;;;;;26.80;14.35;;;;;;;6.43;71.44;99222.75;6228125;22;20447;-71
2022/10/23 08:42:25;;;;;;;29.15;15.32;;;;;;;6.42;72.49;99220.22;6204301;22;20019;-71
2022/10/23 08:44:55;;;;;;;35.05;14.15;;;;;;;6.52;71.64;99224.00;6203155;22;20447;-72
2022/10/23 08:47:35;;;;;;;34.58;15.48;;;;;;;6.49;71.24;99217.09;6230079;22;20607;-73
2022/10/23 08:50:17;;;;;;;31.50;16.05;;;;;;;6.43;72.10;99213.97;6230973;22;20073;-73
2022/10/23 08:52:51;;;;;;;26.70;15.43;;;;;;;6.64;70.89;99215.31;6229346;22;20713;-72
2022/10/23 08:55:41;;;;;;;30.92;15.85;;;;;;;6.61;70.89;99214.63;6233585;22;20213;-72
2022/10/23 08:58:32;;;;;;;28.08;15.32;;;;;;;6.60;71.04;99197.88;6240606;22;20016;-72
2022/10/23 09:00:57;;;;;;;35.53;16.83;;;;;;;6.64;71.27;99193.25;6244954;22;20019;-72
2022/10/23 09:03:23;;;;;;;31.77;15.05;;;;;;;6.64;71.37;99190.59;6242199;22;20019;-73
2022/10/23 09:06:10;;;;;;;36.75;17.20;;;;;;;6.65;70.97;99184.38;6230352;22;20102;-72
2022/10/23 09:09:04;;;;;;;30.85;15.38;;;;;;;6.62;71.08;99180.09;6228382;22;20105;-73
2022/10/23 09:11:53;;;;;;;30.65;13.88;;;;;;;6.64;71.25;99178.22;6202802;22;20091;-72
2022/10/23 09:14:27;;;;;;;30.70;15.32;;;;;;;6.54;71.79;99177.94;6229799;22;20012;-72
2022/10/23 09:17:15;;;;;;;37.10;19.55;;;;;;;6.54;72.72;99183.25;6229888;22;20020;-72
2022/10/23 09:19:43;;;;;;;26.73;14.85;;;;;;;6.66;71.67;99176.28;6229241;22;20024;-72
2022/10/23 09:22:09;;;;;;;28.52;16.58;;;;;;;6.66;71.86;99176.28;6229849;22;20028;-73
2022/10/23 09:24:35;;;;;;;26.55;15.52;;;;;;;6.72;72.88;99175.06;6229503;22;20081;-72
2022/10/23 09:27:00;;;;;;;35.20;16.60;;;;;;;6.91;71.30;99171.16;6203173;22;20042;-72
2022/10/23 09:29:28;;;;;;;35.58;16.52;;;;;;;6.89;71.29;99166.88;6229997;22;20047;-73
2022/10/23 09:31:56;;;;;;;32.42;15.57;;;;;;;6.91;71.97;99165.00;6238917;22;20019;-70
2022/10/23 09:34:27;;;;;;;33.63;15.90;;;;;;;6.93;71.73;99166.59;6229859;22;20020;-72
2022/10/23 09:36:58;;;;;;;38.40;17.33;;;;;;;6.93;71.69;99163.97;6229126;22;20015;-72
2022/10/23 09:39:29;;;;;;;32.13;13.73;;;;;;;7.08;71.49;99161.28;6227985;22;20470;-72
2022/10/23 09:41:54;;;;;;;31.02;16.17;;;;;;;6.97;71.40;99153.16;6229918;22;20512;-71
2022/10/23 09:44:32;;;;;;;40.35;15.88;;;;;;;6.97;72.35;99148.72;6229049;22;20343;-71
2022/10/23 09:47:10;;;;;;;29.80;14.20;;;;;;;7.03;72.02;99150.09;6202519;22;20042;-73
2022/10/23 09:49:38;;;;;;;32.33;17.23;;;;;;;6.92;71.88;99156.97;6229227;22;20016;-71
2022/10/23 09:52:21;;;;;;;26.23;13.57;;;;;;;6.95;71.33;99160.38;6227427;22;20015;-71
2022/10/23 09:54:59;;;;;;;34.75;15.32;;;;;;;6.82;71.87;99157.66;6229280;22;20390;-73
2022/10/23 09:57:23;;;;;;;27.73;11.27;;;;;;;6.78;72.14;99149.03;6229428;22;20026;-72
2022/10/23 09:59:54;;;;;;;32.90;15.13;;;;;;;6.63;72.68;99150.03;6229407;22;20011;-71
2022/10/23 10:02:34;;;;;;;31.90;16.02;;;;;;;6.52;73.24;99147.22;6202472;22;20098;-72
2022/10/23 10:05:30;;;;;;;25.50;14.93;;;;;;;6.45;74.79;99144.06;6229134;22;20016;-73
2022/10/23 10:08:19;;;;;;;31.13;15.93;;;;;;;6.38;74.97;99144.56;6204683;22;20019;-70
2022/10/23 10:10:48;;;;;;;31.13;16.27;;;;;;;6.42;75.24;99135.50;6229604;22;20016;-71
2022/10/23 10:13:25;;;;;;;25.17;14.07;;;;;;;6.43;75.00;99137.19;6230943;22;20093;-71
2022/10/23 10:15:57;;;;;;;26.27;13.10;;;;;;;6.42;74.99;99128.41;6229757;22;20020;-75
2022/10/23 10:18:30;;;;;;;30.50;15.07;;;;;;;6.43;75.31;99126.59;6232781;22;20104;-74
2022/10/23 10:21:05;;;;;;;27.63;16.23;;;;;;;6.49;75.01;99121.75;6241818;22;20023;-74
2022/10/23 10:23:45;;;;;;;25.85;14.80;;;;;;;6.52;75.12;99118.06;6241900;22;20246;-74
2022/10/23 10:26:21;;;;;;;32.55;15.48;;;;;;;6.56;74.86;99122.22;6243546;22;20020;-74
2022/10/23 10:29:18;;;;;;;28.77;14.90;;;;;;;6.65;74.70;99126.09;6243852;22;20015;-72
2022/10/23 10:32:13;;;;;;;30.75;14.90;;;;;;;6.68;73.73;99110.84;6239278;22;20011;-74
2022/10/23 10:34:53;;;;;;;33.42;16.67;;;;;;;6.60;73.90;99102.53;6231977;22;20026;-73
2022/10/23 10:37:44;;;;;;;26.52;14.80;;;;;;;6.66;74.72;99110.06;6231653;22;20020;-72
2022/10/23 10:40:26;;;;;;;34.05;15.65;;;;;;;6.60;73.84;99110.50;6230720;22;20069;-74
2022/10/23 10:43:05;;;;;;;28.17;16.00;;;;;;;6.55;74.53;99104.63;6231243;22;20086;-73
2022/10/23 10:45:38;;;;;;;34.22;16.20;;;;;;;6.50;74.58;99106.72;6231388;22;20142;-73
2022/10/23 10:48:15;;;;;;;35.80;16.95;;;;;;;6.49;74.62;99103.22;6230501;22;20051;-73
2022/10/23 10:51:04;;;;;;;31.02;16.63;;;;;;;6.55;74.36;99112.56;6230353;22;20153;-71
2022/10/23 10:53:56;;;;;;;31.00;15.70;;;;;;;6.46;74.84;99097.25;6229491;22;20011;-72
2022/10/23 10:56:25;;;;;;;36.53;18.38;;;;;;;6.34;74.98;99093.59;6228306;22;20017;-72
2022/10/23 10:58:59;;;;;;;24.83;14.38;;;;;;;6.38;75.58;99092.47;6229200;22;20011;-72
2022/10/23 11:01:31;;;;;;;37.88;19.75;;;;;;;6.41;75.25;99080.84;6203471;22;20090;-72
2022/10/23 11:04:03;;;;;;;28.13;13.98;;;;;;;6.50;75.37;99085.53;6231071;22;20026;-72
2022/10/23 11:06:33;;;;;;;34.53;17.40;;;;;;;6.62;74.73;99082.13;6228898;22;20008;-71
2022/10/23 11:09:35;;;;;;;36.33;17.65;;;;;;;6.49;75.22;99063.50;6228962;22;20094;-73
2022/10/23 11:12:01;;;;;;;29.52;15.65;;;;;;;6.33;76.46;99075.16;6113301;23;20536;-72
2022/10/23 11:14:29;;;;;;;36.47;17.20;;;;;;;6.36;75.80;99064.38;6136857;23;20525;-73
2022/10/23 11:17:04;;;;;;;34.55;19.33;;;;;;;6.34;76.09;99066.28;6112692;23;20017;-74
2022/10/23 11:19:42;;;;;;;39.33;17.65;;;;;;;6.48;75.80;99058.31;6136945;23;20020;-74
2022/10/23 11:22:15;;;;;;;39.08;17.55;;;;;;;6.50;75.15;99051.13;6137323;23;20020;-72
2022/10/23 11:25:25;;;;;;;39.85;18.20;;;;;;;6.46;75.49;99047.81;6150056;23;20084;-71
2022/10/23 11:28:02;;;;;;;27.02;14.15;;;;;;;6.45;75.34;99048.75;6053106;23;20026;-74
2022/10/23 11:30:48;;;;;;;38.78;19.90;;;;;;;6.29;76.20;99042.75;6065049;23;20018;-72
2022/10/23 11:33:44;;;;;;;31.40;16.52;;;;;;;6.40;75.98;99040.28;6051849;23;20450;-69
2022/10/23 11:36:19;;;;;;;30.70;15.50;;;;;;;6.34;76.80;99039.78;6002374;23;20025;-71
2022/10/23 11:38:48;;;;;;;35.08;16.73;;;;;;;6.41;75.93;99030.53;6000750;23;20073;-69
2022/10/23 11:41:23;;;;;;;36.28;17.00;;;;;;;6.42;75.85;99029.59;6049013;23;20026;-69
2022/10/23 11:44:04;;;;;;;37.88;15.88;;;;;;;6.39;76.09;99037.72;6048898;23;20050;-71
2022/10/23 11:46:29;;;;;;;31.13;15.43;;;;;;;6.25;75.94;99030.66;6025087;23;20470;-69
2022/10/23 11:48:55;;;;;;;34.47;17.40;;;;;;;6.30;76.01;99025.94;6133896;23;20530;-68
2022/10/23 11:51:36;;;;;;;34.05;16.15;;;;;;;6.24;76.16;99030.75;6141114;23;20051;-67
2022/10/23 11:54:10;;;;;;;29.27;16.15;;;;;;;6.06;78.50;99023.03;6176360;23;20024;-74